sensor_id;sensor_type;location;lat;lon;timestamp;temperature;humidity
19037;DHT22;9651;49.138;8.900;2022-10-22T00:01:51;14.10;99.90
19037;DHT22;9651;49.138;8.900;2022-10-22T00:05:54;14.10;99.90
19037;DHT22;9651;49.138;8.900;2022-10-22T00:09:56;14.10;99.90
19037;DHT22;9651;49.138;8.900;2022-10-22T00:13:58;14.10;99.90
19037;DHT22;9651;49.138;8.900;2022-10-22T00:18:00;14.10;99.90
19037;DHT22;9651;49.138;8.900;2022-10-22T00:22:03;14.20;99.90
19037;DHT22;9651;49.138;8.900;2022-10-22T00:26:05;14.10;99.90
19037;DHT22;9651;49.138;8.900;2022-10-22T00:30:08;14.10;99.90
19037;DHT22;9651;49.138;8.900;2022-10-22T00:34:10;14.10;99.90
19037;DHT22;9651;49.138;8.900;2022-10-22T00:38:14;14.00;99.90
19037;DHT22;9651;49.138;8.900;2022-10-22T00:42:19;14.00;99.90
19037;DHT22;9651;49.138;8.900;2022-10-22T00:46:22;13.90;99.90
19037;DHT22;9651;49.138;8.900;2022-10-22T00:50:29;13.90;99.90
19037;DHT22;9651;49.138;8.900;2022-10-22T00:54:33;13.90;99.90
19037;DHT22;9651;49.138;8.900;2022-10-22T00:58:38;14.00;99.90
19037;DHT22;9651;49.138;8.900;2022-10-22T01:02:40;14.00;99.90
19037;DHT22;9651;49.138;8.900;2022-10-22T01:06:42;14.00;99.90
19037;DHT22;9651;49.138;8.900;2022-10-22T01:10:52;14.00;99.90
19037;DHT22;9651;49.138;8.900;2022-10-22T01:15:05;14.00;99.90
19037;DHT22;9651;49.138;8.900;2022-10-22T01:24:10;13.90;99.90
19037;DHT22;9651;49.138;8.900;2022-10-22T01:28:22;13.80;99.90
19037;DHT22;9651;49.138;8.900;2022-10-22T01:32:32;13.80;99.90
19037;DHT22;9651;49.138;8.900;2022-10-22T01:36:36;13.70;99.90
19037;DHT22;9651;49.138;8.900;2022-10-22T01:40:39;13.70;99.90
19037;DHT22;9651;49.138;8.900;2022-10-22T01:44:41;13.60;99.90
19037;DHT22;9651;49.138;8.900;2022-10-22T01:48:55;13.60;99.90
19037;DHT22;9651;49.138;8.900;2022-10-22T01:53:17;13.70;99.90
19037;DHT22;9651;49.138;8.900;2022-10-22T01:57:26;13.60;99.90
19037;DHT22;9651;49.138;8.900;2022-10-22T02:01:39;13.60;99.90
19037;DHT22;9651;49.138;8.900;2022-10-22T02:05:46;13.60;99.90
19037;DHT22;9651;49.138;8.900;2022-10-22T02:09:51;13.60;99.90
19037;DHT22;9651;49.138;8.900;2022-10-22T02:13:57;13.60;99.90
19037;DHT22;9651;49.138;8.900;2022-10-22T02:18:00;13.60;99.90
19037;DHT22;9651;49.138;8.900;2022-10-22T02:22:03;13.60;99.90
19037;DHT22;9651;49.138;8.900;2022-10-22T02:26:08;13.60;99.90
19037;DHT22;9651;49.138;8.900;2022-10-22T02:30:16;13.60;99.90
19037;DHT22;9651;49.138;8.900;2022-10-22T02:34:22;13.60;99.90
19037;DHT22;9651;49.138;8.900;2022-10-22T02:38:28;13.60;99.90
19037;DHT22;9651;49.138;8.900;2022-10-22T02:42:31;13.50;99.90
19037;DHT22;9651;49.138;8.900;2022-10-22T02:46:34;13.50;99.90
19037;DHT22;9651;49.138;8.900;2022-10-22T02:50:35;13.40;99.90
19037;DHT22;9651;49.138;8.900;2022-10-22T02:54:39;13.40;99.90
19037;DHT22;9651;49.138;8.900;2022-10-22T02:58:40;13.40;99.90
19037;DHT22;9651;49.138;8.900;2022-10-22T03:02:42;13.40;99.90
19037;DHT22;9651;49.138;8.900;2022-10-22T03:06:44;13.40;99.90
19037;DHT22;9651;49.138;8.900;2022-10-22T03:10:49;13.40;99.90
19037;DHT22;9651;49.138;8.900;2022-10-22T03:14:51;13.30;99.90
19037;DHT22;9651;49.138;8.900;2022-10-22T03:18:53;13.30;99.90
19037;DHT22;9651;49.138;8.900;2022-10-22T03:22:55;13.30;99.90
19037;DHT22;9651;49.138;8.900;2022-10-22T03:26:59;13.40;99.90
19037;DHT22;9651;49.138;8.900;2022-10-22T03:31:01;13.40;99.90
19037;DHT22;9651;49.138;8.900;2022-10-22T03:35:03;13.40;99.90
19037;DHT22;9651;49.138;8.900;2022-10-22T03:39:06;13.40;99.90
19037;DHT22;9651;49.138;8.900;2022-10-22T03:43:10;13.40;99.90
19037;DHT22;9651;49.138;8.900;2022-10-22T03:47:12;13.40;99.90
19037;DHT22;9651;49.138;8.900;2022-10-22T03:51:14;13.40;99.90
19037;DHT22;9651;49.138;8.900;2022-10-22T03:55:16;13.40;99.90
19037;DHT22;9651;49.138;8.900;2022-10-22T03:59:19;13.40;99.90
19037;DHT22;9651;49.138;8.900;2022-10-22T04:03:21;13.50;99.90
19037;DHT22;9651;49.138;8.900;2022-10-22T04:07:23;13.50;99.90
19037;DHT22;9651;49.138;8.900;2022-10-22T04:11:24;13.50;99.90
19037;DHT22;9651;49.138;8.900;2022-10-22T04:15:28;13.50;99.90
19037;DHT22;9651;49.138;8.900;2022-10-22T04:19:30;13.40;99.90
19037;DHT22;9651;49.138;8.900;2022-10-22T04:23:31;13.30;99.90
19037;DHT22;9651;49.138;8.900;2022-10-22T04:27:34;13.20;99.90
19037;DHT22;9651;49.138;8.900;2022-10-22T04:31:37;13.10;99.90
19037;DHT22;9651;49.138;8.900;2022-10-22T04:35:39;13.10;99.90
19037;DHT22;9651;49.138;8.900;2022-10-22T04:39:41;13.00;99.90
19037;DHT22;9651;49.138;8.900;2022-10-22T04:43:43;12.90;99.90
19037;DHT22;9651;49.138;8.900;2022-10-22T04:47:47;12.90;99.90
19037;DHT22;9651;49.138;8.900;2022-10-22T04:51:49;12.90;99.90
19037;DHT22;9651;49.138;8.900;2022-10-22T04:55:50;12.90;99.90
19037;DHT22;9651;49.138;8.900;2022-10-22T04:59:52;12.90;99.90
19037;DHT22;9651;49.138;8.900;2022-10-22T05:03:57;12.90;99.90
19037;DHT22;9651;49.138;8.900;2022-10-22T05:08:00;12.90;99.90
19037;DHT22;9651;49.138;8.900;2022-10-22T05:12:01;12.90;99.90
19037;DHT22;9651;49.138;8.900;2022-10-22T05:16:04;12.80;99.90
19037;DHT22;9651;49.138;8.900;2022-10-22T05:20:08;12.70;99.90
19037;DHT22;9651;49.138;8.900;2022-10-22T05:24:10;12.60;99.90
19037;DHT22;9651;49.138;8.900;2022-10-22T05:28:12;12.60;99.90
19037;DHT22;9651;49.138;8.900;2022-10-22T05:32:14;12.50;99.90
19037;DHT22;9651;49.138;8.900;2022-10-22T05:36:19;12.50;99.90
19037;DHT22;9651;49.138;8.900;2022-10-22T05:40:21;12.40;99.90
19037;DHT22;9651;49.138;8.900;2022-10-22T05:44:23;12.40;99.90
19037;DHT22;9651;49.138;8.900;2022-10-22T05:48:25;12.30;99.90
19037;DHT22;9651;49.138;8.900;2022-10-22T05:52:28;12.30;99.90
19037;DHT22;9651;49.138;8.900;2022-10-22T05:56:30;12.30;99.90
19037;DHT22;9651;49.138;8.900;2022-10-22T06:00:32;12.20;99.90
19037;DHT22;9651;49.138;8.900;2022-10-22T06:04:35;12.20;99.90
19037;DHT22;9651;49.138;8.900;2022-10-22T06:08:38;12.20;99.90
19037;DHT22;9651;49.138;8.900;2022-10-22T06:12:40;12.30;99.90
19037;DHT22;9651;49.138;8.900;2022-10-22T06:16:42;12.30;99.90
19037;DHT22;9651;49.138;8.900;2022-10-22T06:20:43;12.30;99.90
19037;DHT22;9651;49.138;8.900;2022-10-22T06:24:48;12.40;99.90
19037;DHT22;9651;49.138;8.900;2022-10-22T06:28:50;12.40;99.90
19037;DHT22;9651;49.138;8.900;2022-10-22T06:32:52;12.30;99.90
19037;DHT22;9651;49.138;8.900;2022-10-22T06:36:54;12.40;99.90
19037;DHT22;9651;49.138;8.900;2022-10-22T06:41:01;12.40;99.90
19037;DHT22;9651;49.138;8.900;2022-10-22T06:45:04;12.40;99.90
19037;DHT22;9651;49.138;8.900;2022-10-22T06:49:09;12.50;99.90
19037;DHT22;9651;49.138;8.900;2022-10-22T06:53:12;12.60;99.90
19037;DHT22;9651;49.138;8.900;2022-10-22T06:57:15;12.60;99.90
19037;DHT22;9651;49.138;8.900;2022-10-22T07:01:19;12.60;99.90
19037;DHT22;9651;49.138;8.900;2022-10-22T07:05:21;12.60;99.90
19037;DHT22;9651;49.138;8.900;2022-10-22T07:09:23;12.60;99.90
19037;DHT22;9651;49.138;8.900;2022-10-22T07:13:26;12.70;99.90
19037;DHT22;9651;49.138;8.900;2022-10-22T07:17:28;12.80;99.90
19037;DHT22;9651;49.138;8.900;2022-10-22T07:21:30;12.90;99.90
19037;DHT22;9651;49.138;8.900;2022-10-22T07:25:32;13.00;99.90
19037;DHT22;9651;49.138;8.900;2022-10-22T07:29:35;13.00;99.90
19037;DHT22;9651;49.138;8.900;2022-10-22T07:33:37;13.10;99.90
19037;DHT22;9651;49.138;8.900;2022-10-22T07:37:39;13.10;99.90
19037;DHT22;9651;49.138;8.900;2022-10-22T07:41:41;13.10;99.90
19037;DHT22;9651;49.138;8.900;2022-10-22T07:45:44;13.10;99.90
19037;DHT22;9651;49.138;8.900;2022-10-22T07:49:46;13.20;99.90
19037;DHT22;9651;49.138;8.900;2022-10-22T07:53:48;13.20;99.90
19037;DHT22;9651;49.138;8.900;2022-10-22T07:57:50;13.30;99.90
19037;DHT22;9651;49.138;8.900;2022-10-22T08:01:54;13.80;99.90
19037;DHT22;9651;49.138;8.900;2022-10-22T08:05:56;14.30;99.90
19037;DHT22;9651;49.138;8.900;2022-10-22T08:09:57;14.80;99.90
19037;DHT22;9651;49.138;8.900;2022-10-22T08:13:59;15.30;99.90
19037;DHT22;9651;49.138;8.900;2022-10-22T08:18:03;15.90;99.90
19037;DHT22;9651;49.138;8.900;2022-10-22T08:22:05;16.60;99.90
19037;DHT22;9651;49.138;8.900;2022-10-22T08:26:07;17.10;99.90
19037;DHT22;9651;49.138;8.900;2022-10-22T08:30:10;17.60;99.90
19037;DHT22;9651;49.138;8.900;2022-10-22T08:34:13;17.90;99.90
19037;DHT22;9651;49.138;8.900;2022-10-22T08:38:15;18.20;99.90
19037;DHT22;9651;49.138;8.900;2022-10-22T08:42:41;18.70;99.90
19037;DHT22;9651;49.138;8.900;2022-10-22T08:47:06;19.20;99.90
19037;DHT22;9651;49.138;8.900;2022-10-22T08:51:17;19.80;99.90
19037;DHT22;9651;49.138;8.900;2022-10-22T08:55:21;20.30;99.90
19037;DHT22;9651;49.138;8.900;2022-10-22T08:59:27;20.50;99.90
19037;DHT22;9651;49.138;8.900;2022-10-22T09:03:38;20.40;99.90
19037;DHT22;9651;49.138;8.900;2022-10-22T09:07:44;20.30;99.90
19037;DHT22;9651;49.138;8.900;2022-10-22T09:11:50;20.50;99.90
19037;DHT22;9651;49.138;8.900;2022-10-22T09:15:56;20.80;99.90
19037;DHT22;9651;49.138;8.900;2022-10-22T09:20:08;21.00;99.90
19037;DHT22;9651;49.138;8.900;2022-10-22T09:24:15;21.50;99.90
19037;DHT22;9651;49.138;8.900;2022-10-22T09:28:19;21.80;99.90
19037;DHT22;9651;49.138;8.900;2022-10-22T09:32:21;22.00;99.90
19037;DHT22;9651;49.138;8.900;2022-10-22T09:36:23;22.20;99.90
19037;DHT22;9651;49.138;8.900;2022-10-22T09:40:27;22.60;99.90
19037;DHT22;9651;49.138;8.900;2022-10-22T09:44:32;23.00;99.90
19037;DHT22;9651;49.138;8.900;2022-10-22T09:48:35;23.40;99.90
19037;DHT22;9651;49.138;8.900;2022-10-22T09:52:39;23.60;99.90
19037;DHT22;9651;49.138;8.900;2022-10-22T09:56:51;23.10;99.90
19037;DHT22;9651;49.138;8.900;2022-10-22T10:00:55;22.60;99.90
19037;DHT22;9651;49.138;8.900;2022-10-22T10:05:02;22.90;99.90
19037;DHT22;9651;49.138;8.900;2022-10-22T10:09:07;23.30;99.90
19037;DHT22;9651;49.138;8.900;2022-10-22T10:13:32;24.30;99.90
19037;DHT22;9651;49.138;8.900;2022-10-22T10:17:42;25.20;99.90
19037;DHT22;9651;49.138;8.900;2022-10-22T10:21:53;25.90;99.90
19037;DHT22;9651;49.138;8.900;2022-10-22T10:26:03;25.80;99.90
19037;DHT22;9651;49.138;8.900;2022-10-22T10:30:14;26.40;99.90
19037;DHT22;9651;49.138;8.900;2022-10-22T10:34:26;27.30;99.90
19037;DHT22;9651;49.138;8.900;2022-10-22T10:38:49;27.80;99.90
19037;DHT22;9651;49.138;8.900;2022-10-22T10:42:59;27.70;99.90
19037;DHT22;9651;49.138;8.900;2022-10-22T10:47:12;28.60;99.90
19037;DHT22;9651;49.138;8.900;2022-10-22T10:51:35;29.00;99.90
19037;DHT22;9651;49.138;8.900;2022-10-22T10:55:46;29.50;99.90
19037;DHT22;9651;49.138;8.900;2022-10-22T11:00:01;29.10;99.90
19037;DHT22;9651;49.138;8.900;2022-10-22T11:04:40;29.80;99.90
19037;DHT22;9651;49.138;8.900;2022-10-22T11:08:50;30.00;99.90
19037;DHT22;9651;49.138;8.900;2022-10-22T11:12:58;30.40;99.90
19037;DHT22;9651;49.138;8.900;2022-10-22T11:17:04;31.10;99.90
19037;DHT22;9651;49.138;8.900;2022-10-22T11:21:19;31.20;99.90
19037;DHT22;9651;49.138;8.900;2022-10-22T11:25:24;31.30;99.90
19037;DHT22;9651;49.138;8.900;2022-10-22T11:29:32;30.80;99.40
19037;DHT22;9651;49.138;8.900;2022-10-22T11:33:40;30.70;99.20
19037;DHT22;9651;49.138;8.900;2022-10-22T11:37:46;31.20;98.60
19037;DHT22;9651;49.138;8.900;2022-10-22T11:41:48;31.20;97.30
19037;DHT22;9651;49.138;8.900;2022-10-22T11:45:58;30.80;97.90
19037;DHT22;9651;49.138;8.900;2022-10-22T11:50:25;31.30;98.00
19037;DHT22;9651;49.138;8.900;2022-10-22T11:54:37;31.60;96.30
19037;DHT22;9651;49.138;8.900;2022-10-22T11:58:42;31.20;96.70
19037;DHT22;9651;49.138;8.900;2022-10-22T12:03:01;30.30;97.10
19037;DHT22;9651;49.138;8.900;2022-10-22T12:07:03;28.70;98.30
19037;DHT22;9651;49.138;8.900;2022-10-22T12:11:14;27.50;99.80
19037;DHT22;9651;49.138;8.900;2022-10-22T12:15:22;26.20;99.90
19037;DHT22;9651;49.138;8.900;2022-10-22T12:19:29;25.10;99.90
19037;DHT22;9651;49.138;8.900;2022-10-22T12:23:34;24.30;99.90
19037;DHT22;9651;49.138;8.900;2022-10-22T12:27:39;23.80;99.90
19037;DHT22;9651;49.138;8.900;2022-10-22T12:31:43;23.60;99.90
19037;DHT22;9651;49.138;8.900;2022-10-22T12:35:47;23.50;99.90
19037;DHT22;9651;49.138;8.900;2022-10-22T12:39:51;23.50;99.90
19037;DHT22;9651;49.138;8.900;2022-10-22T12:43:59;23.30;99.90
19037;DHT22;9651;49.138;8.900;2022-10-22T12:48:03;23.00;99.90
19037;DHT22;9651;49.138;8.900;2022-10-22T12:52:10;22.70;99.90
19037;DHT22;9651;49.138;8.900;2022-10-22T12:56:17;22.40;99.90
19037;DHT22;9651;49.138;8.900;2022-10-22T13:00:25;22.10;99.90
19037;DHT22;9651;49.138;8.900;2022-10-22T13:04:32;22.30;99.90
19037;DHT22;9651;49.138;8.900;2022-10-22T13:08:34;22.60;99.90
19037;DHT22;9651;49.138;8.900;2022-10-22T13:12:43;22.60;99.90
19037;DHT22;9651;49.138;8.900;2022-10-22T13:17:12;22.40;99.90
19037;DHT22;9651;49.138;8.900;2022-10-22T13:21:24;22.20;99.90
19037;DHT22;9651;49.138;8.900;2022-10-22T13:25:28;21.90;99.90
19037;DHT22;9651;49.138;8.900;2022-10-22T13:29:30;21.80;99.90
19037;DHT22;9651;49.138;8.900;2022-10-22T13:33:35;21.80;99.90
19037;DHT22;9651;49.138;8.900;2022-10-22T13:37:38;21.80;99.90
19037;DHT22;9651;49.138;8.900;2022-10-22T13:41:39;21.70;99.90
19037;DHT22;9651;49.138;8.900;2022-10-22T13:45:41;21.80;99.90
19037;DHT22;9651;49.138;8.900;2022-10-22T13:49:45;21.90;99.90
19037;DHT22;9651;49.138;8.900;2022-10-22T13:53:48;21.70;99.90
19037;DHT22;9651;49.138;8.900;2022-10-22T13:57:51;21.60;99.90
19037;DHT22;9651;49.138;8.900;2022-10-22T14:01:53;21.40;99.90
19037;DHT22;9651;49.138;8.900;2022-10-22T14:05:58;21.20;99.90
19037;DHT22;9651;49.138;8.900;2022-10-22T14:09:59;21.30;99.90
19037;DHT22;9651;49.138;8.900;2022-10-22T14:14:01;21.40;99.90
19037;DHT22;9651;49.138;8.900;2022-10-22T14:18:11;21.30;99.90
19037;DHT22;9651;49.138;8.900;2022-10-22T14:22:18;21.30;99.90
19037;DHT22;9651;49.138;8.900;2022-10-22T14:26:23;21.20;99.90
19037;DHT22;9651;49.138;8.900;2022-10-22T14:30:27;21.30;99.90
19037;DHT22;9651;49.138;8.900;2022-10-22T14:34:29;21.40;99.90
19037;DHT22;9651;49.138;8.900;2022-10-22T14:38:33;21.30;99.90
19037;DHT22;9651;49.138;8.900;2022-10-22T14:42:37;21.40;99.90
19037;DHT22;9651;49.138;8.900;2022-10-22T14:46:40;21.40;99.90
19037;DHT22;9651;49.138;8.900;2022-10-22T14:50:44;21.40;99.90
19037;DHT22;9651;49.138;8.900;2022-10-22T14:54:47;21.50;99.90
19037;DHT22;9651;49.138;8.900;2022-10-22T14:58:49;21.40;99.90
19037;DHT22;9651;49.138;8.900;2022-10-22T15:02:52;21.20;99.90
19037;DHT22;9651;49.138;8.900;2022-10-22T15:06:55;20.90;99.90
19037;DHT22;9651;49.138;8.900;2022-10-22T15:11:01;20.70;99.90
19037;DHT22;9651;49.138;8.900;2022-10-22T15:15:04;20.50;99.90
19037;DHT22;9651;49.138;8.900;2022-10-22T15:19:06;20.30;99.90
19037;DHT22;9651;49.138;8.900;2022-10-22T15:23:08;20.10;99.90
19037;DHT22;9651;49.138;8.900;2022-10-22T15:27:11;19.90;99.90
19037;DHT22;9651;49.138;8.900;2022-10-22T15:31:13;19.70;99.90
19037;DHT22;9651;49.138;8.900;2022-10-22T15:35:15;19.60;99.90
19037;DHT22;9651;49.138;8.900;2022-10-22T15:39:17;19.40;99.90
19037;DHT22;9651;49.138;8.900;2022-10-22T15:43:21;19.10;99.90
19037;DHT22;9651;49.138;8.900;2022-10-22T15:47:22;18.90;99.90
19037;DHT22;9651;49.138;8.900;2022-10-22T15:51:25;18.70;99.90
19037;DHT22;9651;49.138;8.900;2022-10-22T15:55:27;18.50;99.90
19037;DHT22;9651;49.138;8.900;2022-10-22T15:59:30;18.30;99.90
19037;DHT22;9651;49.138;8.900;2022-10-22T16:03:32;18.10;99.90
19037;DHT22;9651;49.138;8.900;2022-10-22T16:07:34;17.90;99.90
19037;DHT22;9651;49.138;8.900;2022-10-22T16:11:37;17.60;99.90
19037;DHT22;9651;49.138;8.900;2022-10-22T16:15:40;17.50;99.90
19037;DHT22;9651;49.138;8.900;2022-10-22T16:19:42;17.40;99.90
19037;DHT22;9651;49.138;8.900;2022-10-22T16:23:44;17.20;99.90
19037;DHT22;9651;49.138;8.900;2022-10-22T16:27:48;17.10;99.90
19037;DHT22;9651;49.138;8.900;2022-10-22T16:31:51;17.00;99.90
19037;DHT22;9651;49.138;8.900;2022-10-22T16:35:53;17.00;99.90
19037;DHT22;9651;49.138;8.900;2022-10-22T16:39:55;16.80;99.90
19037;DHT22;9651;49.138;8.900;2022-10-22T16:43:57;16.60;99.90
19037;DHT22;9651;49.138;8.900;2022-10-22T16:48:01;16.50;99.90
19037;DHT22;9651;49.138;8.900;2022-10-22T16:52:03;16.30;99.90
19037;DHT22;9651;49.138;8.900;2022-10-22T16:56:07;16.20;99.90
19037;DHT22;9651;49.138;8.900;2022-10-22T17:00:11;16.20;99.90
19037;DHT22;9651;49.138;8.900;2022-10-22T17:04:15;16.00;99.90
19037;DHT22;9651;49.138;8.900;2022-10-22T17:08:25;15.90;99.90
19037;DHT22;9651;49.138;8.900;2022-10-22T17:12:27;15.80;99.90
19037;DHT22;9651;49.138;8.900;2022-10-22T17:16:34;15.70;99.90
19037;DHT22;9651;49.138;8.900;2022-10-22T17:20:41;15.50;99.90
19037;DHT22;9651;49.138;8.900;2022-10-22T17:25:08;15.40;99.90
19037;DHT22;9651;49.138;8.900;2022-10-22T17:29:12;15.20;99.90
19037;DHT22;9651;49.138;8.900;2022-10-22T17:33:14;15.20;99.90
19037;DHT22;9651;49.138;8.900;2022-10-22T17:37:17;15.20;99.90
19037;DHT22;9651;49.138;8.900;2022-10-22T17:41:21;15.10;99.90
19037;DHT22;9651;49.138;8.900;2022-10-22T17:45:23;15.00;99.90
19037;DHT22;9651;49.138;8.900;2022-10-22T17:49:25;14.90;99.90
19037;DHT22;9651;49.138;8.900;2022-10-22T17:53:28;14.90;99.90
19037;DHT22;9651;49.138;8.900;2022-10-22T17:57:30;14.80;99.90
19037;DHT22;9651;49.138;8.900;2022-10-22T18:01:34;14.80;99.90
19037;DHT22;9651;49.138;8.900;2022-10-22T18:05:37;14.80;99.90
19037;DHT22;9651;49.138;8.900;2022-10-22T18:09:40;14.70;99.90
19037;DHT22;9651;49.138;8.900;2022-10-22T18:13:46;14.50;99.90
19037;DHT22;9651;49.138;8.900;2022-10-22T18:17:48;14.50;99.90
19037;DHT22;9651;49.138;8.900;2022-10-22T18:21:50;14.40;99.90
19037;DHT22;9651;49.138;8.900;2022-10-22T18:25:54;14.30;99.90
19037;DHT22;9651;49.138;8.900;2022-10-22T18:29:55;14.20;99.90
19037;DHT22;9651;49.138;8.900;2022-10-22T18:33:57;14.10;99.90
19037;DHT22;9651;49.138;8.900;2022-10-22T18:37:59;14.10;99.90
19037;DHT22;9651;49.138;8.900;2022-10-22T18:42:03;14.10;99.90
19037;DHT22;9651;49.138;8.900;2022-10-22T18:46:06;14.00;99.90
19037;DHT22;9651;49.138;8.900;2022-10-22T18:50:09;13.90;99.90
19037;DHT22;9651;49.138;8.900;2022-10-22T18:54:10;13.80;99.90
19037;DHT22;9651;49.138;8.900;2022-10-22T18:58:14;13.80;99.90
19037;DHT22;9651;49.138;8.900;2022-10-22T19:02:17;13.70;99.90
19037;DHT22;9651;49.138;8.900;2022-10-22T19:06:24;13.70;99.90
19037;DHT22;9651;49.138;8.900;2022-10-22T19:10:28;13.70;99.90
19037;DHT22;9651;49.138;8.900;2022-10-22T19:14:32;13.60;99.90
19037;DHT22;9651;49.138;8.900;2022-10-22T19:18:35;13.60;99.90
19037;DHT22;9651;49.138;8.900;2022-10-22T19:22:38;13.50;99.90
19037;DHT22;9651;49.138;8.900;2022-10-22T19:26:40;13.40;99.90
19037;DHT22;9651;49.138;8.900;2022-10-22T19:30:43;13.40;99.90
19037;DHT22;9651;49.138;8.900;2022-10-22T19:34:45;13.40;99.90
19037;DHT22;9651;49.138;8.900;2022-10-22T19:38:47;13.40;99.90
19037;DHT22;9651;49.138;8.900;2022-10-22T19:42:49;13.30;99.90
19037;DHT22;9651;49.138;8.900;2022-10-22T19:46:55;13.30;99.90
19037;DHT22;9651;49.138;8.900;2022-10-22T19:50:57;13.30;99.90
19037;DHT22;9651;49.138;8.900;2022-10-22T19:55:02;13.30;99.90
19037;DHT22;9651;49.138;8.900;2022-10-22T19:59:04;13.30;99.90
19037;DHT22;9651;49.138;8.900;2022-10-22T20:03:07;13.20;99.90
19037;DHT22;9651;49.138;8.900;2022-10-22T20:07:10;13.20;99.90
19037;DHT22;9651;49.138;8.900;2022-10-22T20:11:16;13.10;99.90
19037;DHT22;9651;49.138;8.900;2022-10-22T20:15:19;13.10;99.90
19037;DHT22;9651;49.138;8.900;2022-10-22T20:19:22;13.10;99.90
19037;DHT22;9651;49.138;8.900;2022-10-22T20:23:25;13.10;99.90
19037;DHT22;9651;49.138;8.900;2022-10-22T20:27:27;13.00;99.90
19037;DHT22;9651;49.138;8.900;2022-10-22T20:31:30;13.00;99.90
19037;DHT22;9651;49.138;8.900;2022-10-22T20:35:34;13.00;99.90
19037;DHT22;9651;49.138;8.900;2022-10-22T20:39:35;13.00;99.90
19037;DHT22;9651;49.138;8.900;2022-10-22T20:43:37;12.90;99.90
19037;DHT22;9651;49.138;8.900;2022-10-22T20:47:39;12.90;99.90
19037;DHT22;9651;49.138;8.900;2022-10-22T20:51:43;12.90;99.90
19037;DHT22;9651;49.138;8.900;2022-10-22T20:55:45;12.90;99.90
19037;DHT22;9651;49.138;8.900;2022-10-22T20:59:46;12.90;99.90
19037;DHT22;9651;49.138;8.900;2022-10-22T21:03:49;12.90;99.90
19037;DHT22;9651;49.138;8.900;2022-10-22T21:07:53;12.80;99.90
19037;DHT22;9651;49.138;8.900;2022-10-22T21:11:55;12.80;99.90
19037;DHT22;9651;49.138;8.900;2022-10-22T21:15:57;12.80;99.90
19037;DHT22;9651;49.138;8.900;2022-10-22T21:19:59;12.80;99.90
19037;DHT22;9651;49.138;8.900;2022-10-22T21:24:03;12.80;99.90
19037;DHT22;9651;49.138;8.900;2022-10-22T21:28:05;12.70;99.90
19037;DHT22;9651;49.138;8.900;2022-10-22T21:32:06;12.70;99.90
19037;DHT22;9651;49.138;8.900;2022-10-22T21:36:09;12.60;99.90
19037;DHT22;9651;49.138;8.900;2022-10-22T21:40:12;12.50;99.90
19037;DHT22;9651;49.138;8.900;2022-10-22T21:44:15;12.50;99.90
19037;DHT22;9651;49.138;8.900;2022-10-22T21:48:17;12.50;99.90
19037;DHT22;9651;49.138;8.900;2022-10-22T21:52:18;12.50;99.90
19037;DHT22;9651;49.138;8.900;2022-10-22T21:56:24;12.40;99.90
19037;DHT22;9651;49.138;8.900;2022-10-22T22:00:26;12.40;99.90
19037;DHT22;9651;49.138;8.900;2022-10-22T22:04:28;12.40;99.90
19037;DHT22;9651;49.138;8.900;2022-10-22T22:08:30;12.40;99.90
19037;DHT22;9651;49.138;8.900;2022-10-22T22:12:34;12.40;99.90
19037;DHT22;9651;49.138;8.900;2022-10-22T22:16:36;12.30;99.90
19037;DHT22;9651;49.138;8.900;2022-10-22T22:20:37;12.30;99.90
19037;DHT22;9651;49.138;8.900;2022-10-22T22:24:39;12.30;99.90
19037;DHT22;9651;49.138;8.900;2022-10-22T22:28:43;12.30;99.90
19037;DHT22;9651;49.138;8.900;2022-10-22T22:32:44;12.20;99.90
19037;DHT22;9651;49.138;8.900;2022-10-22T22:36:46;12.20;99.90
19037;DHT22;9651;49.138;8.900;2022-10-22T22:40:49;12.20;99.90
19037;DHT22;9651;49.138;8.900;2022-10-22T22:44:52;12.10;99.90
19037;DHT22;9651;49.138;8.900;2022-10-22T22:48:54;12.10;99.90
19037;DHT22;9651;49.138;8.900;2022-10-22T22:52:56;12.10;99.90
19037;DHT22;9651;49.138;8.900;2022-10-22T22:56:58;12.10;99.90
19037;DHT22;9651;49.138;8.900;2022-10-22T23:01:13;12.10;99.90
19037;DHT22;9651;49.138;8.900;2022-10-22T23:05:15;12.10;99.90
19037;DHT22;9651;49.138;8.900;2022-10-22T23:09:18;12.10;99.90
19037;DHT22;9651;49.138;8.900;2022-10-22T23:13:20;12.10;99.90
19037;DHT22;9651;49.138;8.900;2022-10-22T23:17:24;12.00;99.90
19037;DHT22;9651;49.138;8.900;2022-10-22T23:21:27;12.00;99.90
19037;DHT22;9651;49.138;8.900;2022-10-22T23:25:29;11.90;99.90
19037;DHT22;9651;49.138;8.900;2022-10-22T23:29:34;11.90;99.90
19037;DHT22;9651;49.138;8.900;2022-10-22T23:33:37;11.90;99.90
19037;DHT22;9651;49.138;8.900;2022-10-22T23:37:39;11.80;99.90
19037;DHT22;9651;49.138;8.900;2022-10-22T23:41:41;11.80;99.90
19037;DHT22;9651;49.138;8.900;2022-10-22T23:45:43;11.80;99.90
19037;DHT22;9651;49.138;8.900;2022-10-22T23:49:46;11.80;99.90
19037;DHT22;9651;49.138;8.900;2022-10-22T23:53:53;11.70;99.90
19037;DHT22;9651;49.138;8.900;2022-10-22T23:57:55;11.80;99.90
